createdAt,value
2022-11-26T00:01:48.341Z,8.20
2022-11-26T00:04:16.409Z,8.20
2022-11-26T00:06:45.624Z,8.20
2022-11-26T00:09:20.195Z,8.20
2022-11-26T00:11:48.057Z,8.30
2022-11-26T00:14:18.437Z,8.40
2022-11-26T00:16:46.330Z,8.40
2022-11-26T00:19:14.247Z,8.40
2022-11-26T00:24:35.184Z,8.30
2022-11-26T00:27:03.249Z,8.20
2022-11-26T00:29:32.452Z,8.20
2022-11-26T00:32:00.315Z,9.20
2022-11-26T00:34:28.233Z,8.20
2022-11-26T00:36:56.553Z,8.20
2022-11-26T00:39:25.608Z,8.20
2022-11-26T00:41:54.340Z,8.20
2022-11-26T00:44:23.859Z,8.20
2022-11-26T00:46:53.818Z,8.30
2022-11-26T00:49:21.802Z,8.30
2022-11-26T00:51:49.719Z,8.30
2022-11-26T00:54:20.150Z,8.30
2022-11-26T00:56:48.950Z,8.30
2022-11-26T00:59:23.230Z,8.30
2022-11-26T05:05:14.097Z,7.10
2022-11-26T05:07:42.041Z,7.10
2022-11-26T05:10:12.320Z,7.10
2022-11-26T05:12:40.138Z,7.10
2022-11-26T05:17:36.692Z,7.10
2022-11-26T05:20:07.384Z,7.10
2022-11-26T05:22:35.221Z,7.10
2022-11-26T05:25:02.986Z,7.00
2022-11-26T05:27:30.724Z,7.00
2022-11-26T05:29:58.484Z,7.00
2022-11-26T05:32:26.221Z,7.00
2022-11-26T05:34:59.718Z,7.00
2022-11-26T05:37:29.203Z,7.00
2022-11-26T05:39:57.008Z,6.90
2022-11-26T05:42:24.791Z,6.80
2022-11-26T05:44:52.562Z,6.90
2022-11-26T05:47:20.376Z,6.90
2022-11-26T05:49:48.180Z,6.90
2022-11-26T05:52:15.905Z,8.70
2022-11-26T05:54:44.965Z,6.90
2022-11-26T05:57:12.709Z,6.90
2022-11-26T05:59:40.425Z,6.90
2022-11-26T06:02:08.259Z,6.90
2022-11-26T06:04:36.326Z,6.90
2022-11-26T06:07:04.341Z,6.90
2022-11-26T06:09:32.181Z,6.80
2022-11-26T06:12:01.325Z,6.80
2022-11-26T06:14:29.463Z,6.60
2022-11-26T06:16:57.219Z,6.60
2022-11-26T06:19:25.135Z,6.60
2022-11-26T06:21:52.960Z,6.60
2022-11-26T06:24:20.704Z,6.60
2022-11-26T06:26:48.541Z,6.60
2022-11-26T06:29:17.671Z,6.60
2022-11-26T06:31:45.615Z,6.60
2022-11-26T06:34:13.439Z,6.60
2022-11-26T06:36:41.218Z,6.60
2022-11-26T06:39:09.856Z,6.60
2022-11-26T06:41:38.004Z,6.60
2022-11-26T06:44:06.444Z,6.60
2022-11-26T06:46:36.941Z,6.60
2022-11-26T06:49:05.357Z,6.60
2022-11-26T06:51:34.410Z,6.50
2022-11-26T06:54:02.134Z,6.40
2022-11-26T06:56:29.903Z,6.20
2022-11-26T06:58:57.885Z,6.20
2022-11-26T07:01:27.155Z,6.20
2022-11-26T07:03:56.330Z,6.20
2022-11-26T07:06:26.014Z,6.30
2022-11-26T07:08:56.316Z,6.30
2022-11-26T07:11:25.599Z,6.40
2022-11-26T07:13:53.660Z,6.40
2022-11-26T07:16:21.555Z,6.50
2022-11-26T07:18:50.168Z,6.50
2022-11-26T07:21:20.137Z,6.50
2022-11-26T07:23:48.558Z,6.50
2022-11-26T07:26:18.500Z,6.50
2022-11-26T07:28:47.636Z,6.50
2022-11-26T07:31:17.592Z,6.50
2022-11-26T07:33:46.110Z,6.50
2022-11-26T07:36:17.422Z,6.60
2022-11-26T07:38:46.728Z,6.60
2022-11-26T07:41:17.038Z,6.70
2022-11-26T07:43:45.786Z,6.70
2022-11-26T07:46:16.804Z,6.70
2022-11-26T07:48:45.253Z,6.70
2022-11-26T07:51:18.479Z,6.70
2022-11-26T07:53:47.949Z,6.80
2022-11-26T07:56:15.980Z,6.80
2022-11-26T07:58:43.765Z,6.80
2022-11-26T08:01:13.564Z,6.80
2022-11-26T08:03:43.306Z,6.80
2022-11-26T08:06:13.274Z,6.90
2022-11-26T08:08:41.289Z,6.80
2022-11-26T08:11:16.332Z,6.80
2022-11-26T08:13:44.520Z,6.80
2022-11-26T08:16:13.264Z,6.80
2022-11-26T08:18:41.497Z,6.80
2022-11-26T08:21:09.489Z,6.80
2022-11-26T08:23:37.807Z,6.90
2022-11-26T08:29:00.777Z,6.90
2022-11-26T08:31:28.983Z,7.00
2022-11-26T08:33:58.847Z,7.00
2022-11-26T08:36:26.844Z,7.10
2022-11-26T08:38:54.608Z,7.10
2022-11-26T08:41:22.658Z,7.10
2022-11-26T08:44:06.248Z,7.20
2022-11-26T08:46:36.898Z,7.20
2022-11-26T08:49:05.054Z,7.30
2022-11-26T08:51:32.920Z,7.30
2022-11-26T08:54:00.953Z,7.40
2022-11-26T08:56:28.963Z,7.40
2022-11-26T08:58:56.782Z,7.50
2022-11-26T09:01:26.528Z,7.50
2022-11-26T09:03:57.477Z,7.60
2022-11-26T09:09:12.024Z,7.60
2022-11-26T09:11:41.876Z,7.60
2022-11-26T09:14:10.740Z,7.60
2022-11-26T09:16:38.651Z,7.60
2022-11-26T09:19:08.735Z,7.60
2022-11-26T09:21:36.650Z,7.60
2022-11-26T09:26:34.063Z,7.80
2022-11-26T09:29:02.476Z,7.80
2022-11-26T09:31:30.404Z,7.80
2022-11-26T09:33:59.510Z,7.80
2022-11-26T09:36:28.884Z,7.80
2022-11-26T09:38:57.478Z,7.80
2022-11-26T09:41:38.595Z,7.70
2022-11-26T09:44:24.354Z,7.80
2022-11-26T09:47:12.828Z,7.70
2022-11-26T09:49:54.520Z,7.80
2022-11-26T09:52:41.557Z,8.00
2022-11-26T09:55:16.963Z,8.00
2022-11-26T09:57:47.692Z,8.10
2022-11-26T10:00:27.132Z,8.10
2022-11-26T10:02:56.587Z,8.10
2022-11-26T10:05:31.892Z,8.30
2022-11-26T10:08:10.590Z,8.30
2022-11-26T10:10:49.328Z,8.50
2022-11-26T10:13:23.736Z,8.60
2022-11-26T10:16:01.269Z,8.80
2022-11-26T10:18:39.482Z,8.90
2022-11-26T10:21:32.303Z,9.00
2022-11-26T10:24:05.570Z,9.10
2022-11-26T10:26:37.031Z,9.10
2022-11-26T10:29:18.402Z,9.10
2022-11-26T10:31:48.517Z,9.00
2022-11-26T10:34:19.941Z,9.00
2022-11-26T10:36:49.226Z,9.00
2022-11-26T10:39:20.599Z,9.10
2022-11-26T10:41:49.205Z,9.10
2022-11-26T10:44:31.650Z,9.20
2022-11-26T10:47:01.341Z,9.10
2022-11-26T10:49:30.592Z,9.10
2022-11-26T10:52:02.575Z,9.10
2022-11-26T10:54:34.893Z,9.10
2022-11-26T10:57:07.100Z,9.10
2022-11-26T10:59:40.411Z,9.10
2022-11-26T11:02:27.672Z,9.20
2022-11-26T11:04:57.854Z,9.30
2022-11-26T11:07:42.701Z,9.30
2022-11-26T11:10:19.222Z,9.40
2022-11-26T11:12:50.815Z,9.50
2022-11-26T11:15:24.930Z,9.60
2022-11-26T11:17:58.960Z,9.70
2022-11-26T11:20:30.530Z,9.80
2022-11-26T11:23:05.283Z,9.90
2022-11-26T11:25:36.166Z,10.10
2022-11-26T11:28:19.400Z,10.10
2022-11-26T11:30:48.504Z,10.00
2022-11-26T11:33:24.318Z,10.00
2022-11-26T11:36:07.439Z,9.90
2022-11-26T11:38:47.462Z,9.90
2022-11-26T11:41:31.530Z,9.80
2022-11-26T11:44:07.191Z,9.80
2022-11-26T11:46:59.870Z,9.80
2022-11-26T11:49:47.646Z,9.90
2022-11-26T11:52:26.663Z,9.90
2022-11-26T11:55:02.585Z,10.00
2022-11-26T11:57:49.529Z,10.00
2022-11-26T12:00:19.894Z,10.00
2022-11-26T12:03:22.136Z,10.20
2022-11-26T12:06:06.026Z,10.30
2022-11-26T12:08:47.415Z,10.40
2022-11-26T12:11:29.202Z,10.40
2022-11-26T12:14:02.793Z,10.50
2022-11-26T12:16:36.514Z,10.50
2022-11-26T12:19:07.742Z,10.50
2022-11-26T12:21:40.584Z,10.50
2022-11-26T12:24:14.696Z,10.40
2022-11-26T12:26:47.560Z,10.30
2022-11-26T12:29:23.658Z,10.20
2022-11-26T12:31:56.264Z,10.00
2022-11-26T12:34:29.015Z,10.00
2022-11-26T12:37:01.546Z,10.00
2022-11-26T12:39:38.115Z,9.90
2022-11-26T12:42:12.605Z,10.00
2022-11-26T12:44:44.569Z,10.10
2022-11-26T12:47:21.864Z,10.00
2022-11-26T12:50:13.926Z,10.00
2022-11-26T12:52:48.407Z,10.00
2022-11-26T12:57:53.933Z,9.70
2022-11-26T13:00:30.120Z,9.60
2022-11-26T13:03:00.802Z,9.50
2022-11-26T13:05:35.447Z,9.40
2022-11-26T13:08:27.350Z,9.40
2022-11-26T13:11:19.772Z,9.50
2022-11-26T13:13:54.691Z,9.40
2022-11-26T13:16:34.808Z,9.40
2022-11-26T13:19:08.456Z,9.40
2022-11-26T13:21:52.642Z,9.30
2022-11-26T13:24:44.716Z,8.90
2022-11-26T13:27:36.312Z,8.90
2022-11-26T13:30:21.111Z,8.80
2022-11-26T13:33:29.607Z,8.50
2022-11-26T13:36:36.755Z,8.20
2022-11-26T13:39:24.294Z,8.40
2022-11-26T13:42:15.445Z,8.40
2022-11-26T13:45:03.180Z,8.30
2022-11-26T13:47:34.566Z,8.30
2022-11-26T13:50:09.236Z,8.30
2022-11-26T13:52:41.309Z,8.00
2022-11-26T13:55:13.709Z,7.90
2022-11-26T13:57:46.194Z,7.90
2022-11-26T14:00:25.230Z,7.80
2022-11-26T14:02:53.166Z,7.90
2022-11-26T14:05:23.223Z,7.90
2022-11-26T14:07:51.302Z,8.00
2022-11-26T14:10:44.236Z,8.00
2022-11-26T14:13:16.942Z,8.10
2022-11-26T14:15:56.326Z,8.10
2022-11-26T14:19:06.894Z,8.20
2022-11-26T14:21:59.476Z,8.10
2022-11-26T14:24:56.189Z,8.10
2022-11-26T14:27:25.572Z,8.10
2022-11-26T14:29:58.630Z,8.00
2022-11-26T14:32:27.774Z,8.00
2022-11-26T14:34:57.633Z,7.80
2022-11-26T14:37:28.330Z,7.60
2022-11-26T14:40:00.574Z,7.60
2022-11-26T14:42:29.450Z,7.60
2022-11-26T14:45:04.897Z,7.60
2022-11-26T14:47:33.638Z,7.60
2022-11-26T14:50:04.510Z,7.60
2022-11-26T14:52:35.417Z,7.60
2022-11-26T14:55:06.372Z,7.50
2022-11-26T14:57:42.479Z,7.60
2022-11-26T15:00:23.966Z,7.60
2022-11-26T15:02:52.379Z,7.70
2022-11-26T15:05:23.835Z,7.80
2022-11-26T15:08:00.799Z,7.80
2022-11-26T15:10:32.216Z,7.80
2022-11-26T15:13:05.596Z,7.80
2022-11-26T15:15:33.440Z,7.80
2022-11-26T15:18:06.308Z,7.90
2022-11-26T15:20:34.951Z,7.80
2022-11-26T15:23:06.592Z,7.80
2022-11-26T15:25:37.126Z,7.80
2022-11-26T15:28:06.527Z,7.90
2022-11-26T15:30:36.426Z,7.90
2022-11-26T15:33:11.704Z,7.80
2022-11-26T15:35:40.127Z,7.80
2022-11-26T15:38:13.874Z,7.80
2022-11-26T15:40:47.145Z,7.80
2022-11-26T15:43:23.418Z,7.90
2022-11-26T15:45:52.673Z,8.00
2022-11-26T15:48:28.079Z,8.00
2022-11-26T15:51:00.291Z,8.10
2022-11-26T15:53:33.660Z,8.10
2022-11-26T15:56:02.915Z,8.10
2022-11-26T15:58:34.304Z,8.20
2022-11-26T16:01:04.198Z,8.10
2022-11-26T16:03:43.909Z,8.30
2022-11-26T16:06:32.693Z,8.30
2022-11-26T16:09:27.499Z,8.30
2022-11-26T16:12:00.880Z,8.20
2022-11-26T16:17:03.682Z,8.20
2022-11-26T16:19:34.513Z,8.20
2022-11-26T16:22:04.585Z,8.20
2022-11-26T16:24:38.675Z,8.10
2022-11-26T16:27:24.677Z,8.10
2022-11-26T16:29:52.395Z,8.10
2022-11-26T16:32:20.650Z,8.10
2022-11-26T16:34:48.427Z,8.10
2022-11-26T16:37:21.362Z,8.10
2022-11-26T16:39:52.109Z,8.20
2022-11-26T16:42:21.483Z,8.10
2022-11-26T16:44:49.962Z,8.10
2022-11-26T16:49:49.141Z,8.00
2022-11-26T16:52:18.591Z,8.00
2022-11-26T16:54:46.419Z,8.00
2022-11-26T16:57:18.923Z,7.90
2022-11-26T16:59:50.993Z,7.90
2022-11-26T17:02:20.534Z,8.00
2022-11-26T17:04:48.798Z,8.20
2022-11-26T17:07:20.031Z,8.10
2022-11-26T17:09:48.049Z,8.20
2022-11-26T17:12:19.626Z,8.20
2022-11-26T17:14:48.457Z,8.30
2022-11-26T17:17:20.539Z,8.30
2022-11-26T17:19:52.040Z,8.40
2022-11-26T17:22:20.199Z,8.40
2022-11-26T17:24:47.971Z,8.40
2022-11-26T17:27:19.470Z,8.40
2022-11-26T17:29:49.168Z,8.40
2022-11-26T17:32:19.412Z,8.40
2022-11-26T17:34:47.925Z,8.40
2022-11-26T17:37:19.067Z,8.40
2022-11-26T17:39:47.060Z,8.50
2022-11-26T17:42:14.983Z,8.50
2022-11-26T17:47:17.374Z,8.60
2022-11-26T17:52:14.973Z,8.60
2022-11-26T17:54:43.481Z,8.60
2022-11-26T17:57:12.172Z,8.60
2022-11-26T17:59:40.284Z,8.60
2022-11-26T18:02:10.682Z,8.60
2022-11-26T18:04:38.731Z,8.60
2022-11-26T18:07:09.025Z,8.70
2022-11-26T18:09:36.931Z,8.70
2022-11-26T18:12:05.810Z,8.70
2022-11-26T18:14:35.498Z,8.60
2022-11-26T18:17:04.086Z,8.60
2022-11-26T18:19:33.259Z,8.60
2022-11-26T18:22:00.983Z,8.60
2022-11-26T18:24:29.476Z,8.60
2022-11-26T18:26:57.299Z,8.60
2022-11-26T18:29:26.004Z,8.60
2022-11-26T18:31:54.222Z,8.60
2022-11-26T18:34:22.360Z,8.60
2022-11-26T18:36:53.861Z,8.60
2022-11-26T18:39:22.588Z,8.70
2022-11-26T18:41:50.328Z,8.60
2022-11-26T18:44:18.110Z,8.70
2022-11-26T18:46:45.888Z,8.70
2022-11-26T18:49:13.826Z,8.70
2022-11-26T18:54:12.264Z,8.60
2022-11-26T18:56:40.056Z,8.70
2022-11-26T19:01:36.132Z,8.60
2022-11-26T19:04:04.393Z,8.60
2022-11-26T19:06:33.593Z,8.50
2022-11-26T19:09:02.932Z,8.50
2022-11-26T19:11:32.263Z,8.50
2022-11-26T19:14:00.249Z,8.50
2022-11-26T19:16:29.111Z,8.60
2022-11-26T19:18:56.986Z,8.60
2022-11-26T19:21:27.923Z,8.60
2022-11-26T19:23:57.754Z,8.60
2022-11-26T19:26:25.805Z,8.60
2022-11-26T19:28:55.034Z,8.60
2022-11-26T19:31:24.972Z,8.60
2022-11-26T19:33:54.628Z,8.60
2022-11-26T19:36:22.919Z,8.70
2022-11-26T19:38:55.617Z,8.70
2022-11-26T19:41:25.765Z,8.70
2022-11-26T19:43:55.710Z,8.70
2022-11-26T19:46:25.864Z,8.70
2022-11-26T19:51:25.165Z,8.60
2022-11-26T19:53:55.268Z,8.60
2022-11-26T19:56:24.885Z,8.70
2022-11-26T19:58:54.599Z,8.60
2022-11-26T20:01:23.883Z,8.60
2022-11-26T20:03:52.080Z,8.60
2022-11-26T20:06:21.986Z,8.60
2022-11-26T20:08:50.768Z,8.70
2022-11-26T20:11:19.688Z,8.70
2022-11-26T20:13:49.292Z,8.70
2022-11-26T20:16:20.255Z,8.60
2022-11-26T20:18:50.442Z,8.60
2022-11-26T20:21:21.074Z,8.60
2022-11-26T20:23:50.113Z,8.60
2022-11-26T20:26:19.610Z,8.70
2022-11-26T20:28:47.572Z,8.60
2022-11-26T20:31:20.705Z,8.70
2022-11-26T20:33:52.883Z,8.60
2022-11-26T20:36:23.005Z,8.60
2022-11-26T20:38:53.599Z,8.60
2022-11-26T20:41:21.796Z,8.60
2022-11-26T20:43:53.543Z,8.50
2022-11-26T20:46:25.495Z,8.60
2022-11-26T20:48:54.934Z,8.50
2022-11-26T20:51:23.005Z,8.50
2022-11-26T20:53:52.082Z,8.50
2022-11-26T20:56:22.335Z,8.50
2022-11-26T20:58:51.243Z,8.50
2022-11-26T21:01:20.693Z,8.50
2022-11-26T21:03:48.756Z,8.50
2022-11-26T21:06:22.386Z,8.50
2022-11-26T21:08:55.264Z,8.50
2022-11-26T21:11:23.002Z,8.50
2022-11-26T21:13:50.905Z,8.50
2022-11-26T21:16:19.283Z,8.50
2022-11-26T21:18:47.555Z,8.50
2022-11-26T21:21:18.010Z,8.40
2022-11-26T21:23:46.565Z,8.50
2022-11-26T21:26:17.788Z,8.50
2022-11-26T21:28:46.154Z,8.50
2022-11-26T21:31:17.212Z,8.50
2022-11-26T21:33:46.273Z,8.50
2022-11-26T21:36:16.049Z,8.50
2022-11-26T21:38:48.913Z,8.50
2022-11-26T21:41:19.013Z,8.50
2022-11-26T21:43:48.448Z,8.50
2022-11-26T21:46:18.819Z,8.50
2022-11-26T21:48:46.719Z,8.50
2022-11-26T21:51:16.226Z,8.50
2022-11-26T21:53:45.856Z,8.60
2022-11-26T21:56:15.283Z,8.60
2022-11-26T21:58:43.419Z,8.50
2022-11-26T22:01:12.201Z,8.50
2022-11-26T22:03:40.869Z,8.40
2022-11-26T22:06:09.148Z,8.40
2022-11-26T22:08:36.990Z,8.40
2022-11-26T22:11:10.893Z,8.40
2022-11-26T22:13:38.991Z,8.30
2022-11-26T22:16:07.579Z,8.30
2022-11-26T22:18:37.068Z,8.40
2022-11-26T22:21:05.345Z,8.30
2022-11-26T22:23:33.128Z,8.30
2022-11-26T22:26:01.669Z,8.40
2022-11-26T22:28:30.834Z,8.40
2022-11-26T22:30:58.570Z,8.40
2022-11-26T22:33:26.478Z,8.40
2022-11-26T22:35:54.234Z,8.40
2022-11-26T22:38:21.945Z,8.40
2022-11-26T22:40:49.658Z,8.40
2022-11-26T22:43:17.434Z,8.40
2022-11-26T22:45:46.623Z,8.40
2022-11-26T22:48:14.432Z,8.40
2022-11-26T22:50:42.159Z,8.40
2022-11-26T22:53:10.849Z,8.40
2022-11-26T22:55:38.618Z,8.40
2022-11-26T22:58:06.400Z,8.40
2022-11-26T23:00:50.682Z,8.30
2022-11-26T23:03:20.319Z,8.40
2022-11-26T23:05:48.411Z,8.40
2022-11-26T23:08:17.580Z,8.40
2022-11-26T23:10:46.271Z,8.40
2022-11-26T23:13:14.376Z,8.40
2022-11-26T23:15:44.885Z,8.40
2022-11-26T23:18:16.181Z,8.40
2022-11-26T23:20:44.770Z,8.40
2022-11-26T23:23:13.416Z,8.40
2022-11-26T23:25:42.406Z,8.40
2022-11-26T23:30:38.363Z,8.40
2022-11-26T23:33:06.077Z,8.40
2022-11-26T23:35:35.143Z,8.40
2022-11-26T23:38:03.482Z,8.40
2022-11-26T23:40:31.368Z,8.40
2022-11-26T23:42:59.123Z,8.40
2022-11-26T23:45:27.030Z,8.50
2022-11-26T23:47:54.821Z,8.40
2022-11-26T23:50:22.687Z,8.40
2022-11-26T23:52:51.985Z,8.40
2022-11-26T23:55:19.715Z,8.40
2022-11-26T23:57:47.549Z,8.50
